sensor_id;sensor_type;location;lat;lon;timestamp;noise_LAeq;noise_LA_min;noise_LA_max;noise_LA01;noise_LA95
38366;Laerm;943;51.568;6.998;2024-03-06T00:02:14;36.90;34.91;41.45;;
38366;Laerm;943;51.568;6.998;2024-03-06T00:04:44;37.79;34.32;41.26;;
38366;Laerm;943;51.568;6.998;2024-03-06T00:07:12;37.42;34.93;42.69;;
38366;Laerm;943;51.568;6.998;2024-03-06T00:09:41;38.07;35.65;40.93;;
38366;Laerm;943;51.568;6.998;2024-03-06T00:12:09;36.25;33.73;40.39;;
38366;Laerm;943;51.568;6.998;2024-03-06T00:14:38;37.48;33.58;45.86;;
38366;Laerm;943;51.568;6.998;2024-03-06T00:17:09;41.21;35.05;53.66;;
38366;Laerm;943;51.568;6.998;2024-03-06T00:19:38;40.97;35.23;54.15;;
38366;Laerm;943;51.568;6.998;2024-03-06T00:22:07;37.25;34.44;45.59;;
38366;Laerm;943;51.568;6.998;2024-03-06T00:24:36;39.49;35.22;48.81;;
38366;Laerm;943;51.568;6.998;2024-03-06T00:27:06;36.93;34.36;41.07;;
38366;Laerm;943;51.568;6.998;2024-03-06T00:29:38;36.87;34.53;45.66;;
38366;Laerm;943;51.568;6.998;2024-03-06T00:32:07;37.83;34.66;41.30;;
38366;Laerm;943;51.568;6.998;2024-03-06T00:34:36;38.16;35.08;46.24;;
38366;Laerm;943;51.568;6.998;2024-03-06T00:37:05;38.43;34.06;43.61;;
38366;Laerm;943;51.568;6.998;2024-03-06T00:39:33;36.56;33.75;40.80;;
38366;Laerm;943;51.568;6.998;2024-03-06T00:42:03;38.98;35.48;52.03;;
38366;Laerm;943;51.568;6.998;2024-03-06T00:44:31;37.89;33.09;49.79;;
38366;Laerm;943;51.568;6.998;2024-03-06T00:47:00;36.71;33.91;41.15;;
38366;Laerm;943;51.568;6.998;2024-03-06T00:49:28;36.54;32.93;41.46;;
38366;Laerm;943;51.568;6.998;2024-03-06T00:51:56;37.02;32.91;51.85;;
38366;Laerm;943;51.568;6.998;2024-03-06T00:54:25;37.75;34.53;46.07;;
38366;Laerm;943;51.568;6.998;2024-03-06T00:56:54;37.12;34.43;42.59;;
38366;Laerm;943;51.568;6.998;2024-03-06T00:59:23;37.24;34.29;42.72;;
38366;Laerm;943;51.568;6.998;2024-03-06T01:01:57;38.51;33.76;50.85;;
38366;Laerm;943;51.568;6.998;2024-03-06T01:04:25;37.31;33.81;45.22;;
38366;Laerm;943;51.568;6.998;2024-03-06T01:06:53;36.02;33.44;41.83;;
38366;Laerm;943;51.568;6.998;2024-03-06T01:09:25;35.97;33.37;42.69;;
38366;Laerm;943;51.568;6.998;2024-03-06T01:11:53;36.92;33.14;46.91;;
38366;Laerm;943;51.568;6.998;2024-03-06T01:14:22;36.79;33.62;51.57;;
38366;Laerm;943;51.568;6.998;2024-03-06T01:16:51;37.22;34.11;42.36;;
38366;Laerm;943;51.568;6.998;2024-03-06T01:19:20;36.05;33.16;52.37;;
38366;Laerm;943;51.568;6.998;2024-03-06T01:21:49;37.89;35.15;44.73;;
38366;Laerm;943;51.568;6.998;2024-03-06T01:24:18;38.07;33.84;58.45;;
38366;Laerm;943;51.568;6.998;2024-03-06T01:26:48;36.78;33.72;41.62;;
38366;Laerm;943;51.568;6.998;2024-03-06T01:29:19;35.81;32.91;45.95;;
38366;Laerm;943;51.568;6.998;2024-03-06T01:31:47;35.27;32.88;45.63;;
38366;Laerm;943;51.568;6.998;2024-03-06T01:34:17;35.12;32.97;42.56;;
38366;Laerm;943;51.568;6.998;2024-03-06T01:36:46;35.82;33.26;49.74;;
38366;Laerm;943;51.568;6.998;2024-03-06T01:39:14;36.24;33.13;43.27;;
38366;Laerm;943;51.568;6.998;2024-03-06T01:41:50;36.46;33.11;51.49;;
38366;Laerm;943;51.568;6.998;2024-03-06T01:44:19;37.21;33.84;45.82;;
38366;Laerm;943;51.568;6.998;2024-03-06T01:46:48;36.70;33.24;44.66;;
38366;Laerm;943;51.568;6.998;2024-03-06T01:49:21;37.22;33.14;47.51;;
38366;Laerm;943;51.568;6.998;2024-03-06T01:52:03;35.94;32.66;44.79;;
38366;Laerm;943;51.568;6.998;2024-03-06T01:54:33;37.66;34.82;49.55;;
38366;Laerm;943;51.568;6.998;2024-03-06T01:57:03;36.99;33.91;45.94;;
38366;Laerm;943;51.568;6.998;2024-03-06T01:59:33;40.16;35.85;51.78;;
38366;Laerm;943;51.568;6.998;2024-03-06T02:02:07;37.25;34.18;47.42;;
38366;Laerm;943;51.568;6.998;2024-03-06T02:04:40;37.54;34.30;46.07;;
38366;Laerm;943;51.568;6.998;2024-03-06T02:07:14;38.17;34.91;47.15;;
38366;Laerm;943;51.568;6.998;2024-03-06T02:09:44;37.50;34.29;42.38;;
38366;Laerm;943;51.568;6.998;2024-03-06T02:12:15;39.17;36.31;47.58;;
38366;Laerm;943;51.568;6.998;2024-03-06T02:14:44;38.75;35.89;49.85;;
38366;Laerm;943;51.568;6.998;2024-03-06T02:17:13;38.84;36.23;41.49;;
38366;Laerm;943;51.568;6.998;2024-03-06T02:19:44;39.40;35.77;50.71;;
38366;Laerm;943;51.568;6.998;2024-03-06T02:22:12;38.88;35.78;42.79;;
38366;Laerm;943;51.568;6.998;2024-03-06T02:24:50;39.17;36.00;43.97;;
38366;Laerm;943;51.568;6.998;2024-03-06T02:27:18;39.87;37.13;44.69;;
38366;Laerm;943;51.568;6.998;2024-03-06T02:29:47;39.93;36.55;48.43;;
38366;Laerm;943;51.568;6.998;2024-03-06T02:32:18;40.60;36.87;44.78;;
38366;Laerm;943;51.568;6.998;2024-03-06T02:34:46;41.71;38.64;56.75;;
38366;Laerm;943;51.568;6.998;2024-03-06T02:37:18;41.42;38.11;45.17;;
38366;Laerm;943;51.568;6.998;2024-03-06T02:39:47;41.60;38.52;45.81;;
38366;Laerm;943;51.568;6.998;2024-03-06T02:42:17;41.65;37.87;46.39;;
38366;Laerm;943;51.568;6.998;2024-03-06T02:44:46;40.95;37.16;45.36;;
38366;Laerm;943;51.568;6.998;2024-03-06T02:47:14;40.63;36.42;48.60;;
38366;Laerm;943;51.568;6.998;2024-03-06T02:49:43;41.45;36.92;45.94;;
38366;Laerm;943;51.568;6.998;2024-03-06T02:52:12;40.23;36.12;46.28;;
38366;Laerm;943;51.568;6.998;2024-03-06T02:54:43;41.39;37.23;45.99;;
38366;Laerm;943;51.568;6.998;2024-03-06T02:57:11;40.51;37.35;47.25;;
38366;Laerm;943;51.568;6.998;2024-03-06T02:59:41;40.35;35.44;46.44;;
38366;Laerm;943;51.568;6.998;2024-03-06T03:02:09;39.95;35.92;45.04;;
38366;Laerm;943;51.568;6.998;2024-03-06T03:04:38;40.89;37.15;44.21;;
38366;Laerm;943;51.568;6.998;2024-03-06T03:07:07;40.78;37.03;54.57;;
38366;Laerm;943;51.568;6.998;2024-03-06T03:09:38;40.53;37.51;51.68;;
38366;Laerm;943;51.568;6.998;2024-03-06T03:12:07;40.03;37.36;44.82;;
38366;Laerm;943;51.568;6.998;2024-03-06T03:14:35;40.31;37.12;47.22;;
38366;Laerm;943;51.568;6.998;2024-03-06T03:17:07;41.01;36.78;47.09;;
38366;Laerm;943;51.568;6.998;2024-03-06T03:19:36;42.13;38.88;46.17;;
38366;Laerm;943;51.568;6.998;2024-03-06T03:22:05;42.97;38.88;53.73;;
38366;Laerm;943;51.568;6.998;2024-03-06T03:24:34;42.19;39.49;50.94;;
38366;Laerm;943;51.568;6.998;2024-03-06T03:27:03;43.23;40.40;47.69;;
38366;Laerm;943;51.568;6.998;2024-03-06T03:29:31;42.43;39.80;45.50;;
38366;Laerm;943;51.568;6.998;2024-03-06T03:32:00;42.14;39.13;44.79;;
38366;Laerm;943;51.568;6.998;2024-03-06T03:34:28;41.88;38.79;46.95;;
38366;Laerm;943;51.568;6.998;2024-03-06T03:36:57;40.65;38.01;47.48;;
38366;Laerm;943;51.568;6.998;2024-03-06T03:39:28;40.09;37.30;46.43;;
38366;Laerm;943;51.568;6.998;2024-03-06T03:42:01;41.06;38.73;44.41;;
38366;Laerm;943;51.568;6.998;2024-03-06T03:44:30;41.55;39.12;45.24;;
38366;Laerm;943;51.568;6.998;2024-03-06T03:46:58;42.32;39.12;45.52;;
38366;Laerm;943;51.568;6.998;2024-03-06T03:49:27;42.67;40.13;49.87;;
38366;Laerm;943;51.568;6.998;2024-03-06T03:51:55;43.19;39.61;52.73;;
38366;Laerm;943;51.568;6.998;2024-03-06T03:54:23;42.46;39.02;50.51;;
38366;Laerm;943;51.568;6.998;2024-03-06T03:56:52;43.44;40.51;51.23;;
38366;Laerm;943;51.568;6.998;2024-03-06T03:59:21;43.70;41.03;50.93;;
38366;Laerm;943;51.568;6.998;2024-03-06T04:01:51;43.03;40.78;48.31;;
38366;Laerm;943;51.568;6.998;2024-03-06T04:04:19;43.42;40.79;46.77;;
38366;Laerm;943;51.568;6.998;2024-03-06T04:06:48;43.35;40.72;52.90;;
38366;Laerm;943;51.568;6.998;2024-03-06T04:09:16;44.11;40.40;46.88;;
38366;Laerm;943;51.568;6.998;2024-03-06T04:11:45;43.57;40.75;51.38;;
38366;Laerm;943;51.568;6.998;2024-03-06T04:14:14;44.82;42.62;48.20;;
38366;Laerm;943;51.568;6.998;2024-03-06T04:16:46;45.84;42.98;49.25;;
38366;Laerm;943;51.568;6.998;2024-03-06T04:19:14;46.07;43.03;48.77;;
38366;Laerm;943;51.568;6.998;2024-03-06T04:21:44;46.66;43.57;53.25;;
38366;Laerm;943;51.568;6.998;2024-03-06T04:24:12;46.53;44.04;50.26;;
38366;Laerm;943;51.568;6.998;2024-03-06T04:26:40;46.64;44.33;49.15;;
38366;Laerm;943;51.568;6.998;2024-03-06T04:29:09;46.80;43.68;49.88;;
38366;Laerm;943;51.568;6.998;2024-03-06T04:31:37;46.69;44.00;50.23;;
38366;Laerm;943;51.568;6.998;2024-03-06T04:34:06;46.98;43.76;53.03;;
38366;Laerm;943;51.568;6.998;2024-03-06T04:36:34;47.03;44.38;53.53;;
38366;Laerm;943;51.568;6.998;2024-03-06T04:39:08;47.35;43.49;51.10;;
38366;Laerm;943;51.568;6.998;2024-03-06T04:41:37;46.86;43.80;51.05;;
38366;Laerm;943;51.568;6.998;2024-03-06T04:44:06;46.83;42.92;54.90;;
38366;Laerm;943;51.568;6.998;2024-03-06T04:46:34;47.30;43.52;51.37;;
38366;Laerm;943;51.568;6.998;2024-03-06T04:49:04;46.98;43.46;58.46;;
38366;Laerm;943;51.568;6.998;2024-03-06T04:51:32;47.97;42.83;64.64;;
38366;Laerm;943;51.568;6.998;2024-03-06T04:54:02;50.69;43.08;65.14;;
38366;Laerm;943;51.568;6.998;2024-03-06T04:56:32;48.81;42.48;65.16;;
38366;Laerm;943;51.568;6.998;2024-03-06T04:59:04;48.20;42.08;57.79;;
38366;Laerm;943;51.568;6.998;2024-03-06T05:01:33;56.73;42.49;75.00;;
38366;Laerm;943;51.568;6.998;2024-03-06T05:04:03;60.86;41.67;78.41;;
38366;Laerm;943;51.568;6.998;2024-03-06T05:06:47;55.99;42.01;75.05;;
38366;Laerm;943;51.568;6.998;2024-03-06T05:09:28;54.96;42.21;76.25;;
38366;Laerm;943;51.568;6.998;2024-03-06T05:12:10;60.62;43.92;80.73;;
38366;Laerm;943;51.568;6.998;2024-03-06T05:14:55;56.39;43.56;76.64;;
38366;Laerm;943;51.568;6.998;2024-03-06T05:17:37;56.17;43.64;79.39;;
38366;Laerm;943;51.568;6.998;2024-03-06T05:20:23;60.48;44.33;82.03;;
38366;Laerm;943;51.568;6.998;2024-03-06T05:23:05;56.52;43.38;74.31;;
38366;Laerm;943;51.568;6.998;2024-03-06T05:25:48;58.47;43.48;75.78;;
38366;Laerm;943;51.568;6.998;2024-03-06T05:28:30;54.69;43.79;73.71;;
38366;Laerm;943;51.568;6.998;2024-03-06T05:31:20;58.25;44.48;80.23;;
38366;Laerm;943;51.568;6.998;2024-03-06T05:34:02;53.39;44.32;66.76;;
38366;Laerm;943;51.568;6.998;2024-03-06T05:36:44;53.44;44.65;64.76;;
38366;Laerm;943;51.568;6.998;2024-03-06T05:39:26;49.26;44.03;64.35;;
38366;Laerm;943;51.568;6.998;2024-03-06T05:42:08;48.56;43.87;57.67;;
38366;Laerm;943;51.568;6.998;2024-03-06T05:45:00;49.59;43.72;68.72;;
38366;Laerm;943;51.568;6.998;2024-03-06T05:47:49;52.93;43.61;74.17;;
38366;Laerm;943;51.568;6.998;2024-03-06T05:50:32;51.55;44.10;69.46;;
38366;Laerm;943;51.568;6.998;2024-03-06T05:53:13;49.16;44.56;62.99;;
38366;Laerm;943;51.568;6.998;2024-03-06T05:55:55;48.70;43.63;63.06;;
38366;Laerm;943;51.568;6.998;2024-03-06T05:58:37;47.72;43.02;58.95;;
38366;Laerm;943;51.568;6.998;2024-03-06T06:01:06;49.81;43.40;67.83;;
38366;Laerm;943;51.568;6.998;2024-03-06T06:03:35;53.06;44.18;68.47;;
38366;Laerm;943;51.568;6.998;2024-03-06T06:06:04;55.05;44.94;69.70;;
38366;Laerm;943;51.568;6.998;2024-03-06T06:08:33;56.29;44.24;72.24;;
38366;Laerm;943;51.568;6.998;2024-03-06T06:11:06;55.98;44.56;71.60;;
38366;Laerm;943;51.568;6.998;2024-03-06T06:13:35;54.84;44.58;72.06;;
38366;Laerm;943;51.568;6.998;2024-03-06T06:16:04;52.16;43.56;66.41;;
38366;Laerm;943;51.568;6.998;2024-03-06T06:18:33;53.06;43.14;68.07;;
38366;Laerm;943;51.568;6.998;2024-03-06T06:21:08;53.02;44.20;66.59;;
38366;Laerm;943;51.568;6.998;2024-03-06T06:23:37;55.24;44.67;70.04;;
38366;Laerm;943;51.568;6.998;2024-03-06T06:26:06;54.16;43.66;72.73;;
38366;Laerm;943;51.568;6.998;2024-03-06T06:28:37;52.35;44.07;70.01;;
38366;Laerm;943;51.568;6.998;2024-03-06T06:31:05;50.53;45.51;72.54;;
38366;Laerm;943;51.568;6.998;2024-03-06T06:33:34;54.14;44.26;71.48;;
38366;Laerm;943;51.568;6.998;2024-03-06T06:36:04;54.18;43.87;74.85;;
38366;Laerm;943;51.568;6.998;2024-03-06T06:38:35;47.10;43.91;57.60;;
38366;Laerm;943;51.568;6.998;2024-03-06T06:41:04;48.93;44.92;68.06;;
38366;Laerm;943;51.568;6.998;2024-03-06T06:43:32;51.67;44.52;67.90;;
38366;Laerm;943;51.568;6.998;2024-03-06T06:46:06;52.28;44.08;67.01;;
38366;Laerm;943;51.568;6.998;2024-03-06T06:48:34;51.51;44.00;65.67;;
38366;Laerm;943;51.568;6.998;2024-03-06T06:51:05;47.85;44.01;59.81;;
38366;Laerm;943;51.568;6.998;2024-03-06T06:53:34;49.27;44.96;64.74;;
38366;Laerm;943;51.568;6.998;2024-03-06T06:56:04;52.54;44.85;67.85;;
38366;Laerm;943;51.568;6.998;2024-03-06T06:58:33;52.54;44.01;69.83;;
38366;Laerm;943;51.568;6.998;2024-03-06T07:01:04;52.29;45.08;67.68;;
38366;Laerm;943;51.568;6.998;2024-03-06T07:03:32;50.23;44.55;65.97;;
38366;Laerm;943;51.568;6.998;2024-03-06T07:06:04;50.61;44.42;64.89;;
38366;Laerm;943;51.568;6.998;2024-03-06T07:08:33;51.57;45.04;66.84;;
38366;Laerm;943;51.568;6.998;2024-03-06T07:11:01;49.87;44.48;63.47;;
38366;Laerm;943;51.568;6.998;2024-03-06T07:13:30;48.90;43.20;62.10;;
38366;Laerm;943;51.568;6.998;2024-03-06T07:15:59;52.16;44.76;63.89;;
38366;Laerm;943;51.568;6.998;2024-03-06T07:18:28;52.77;44.81;68.40;;
38366;Laerm;943;51.568;6.998;2024-03-06T07:20:57;50.33;44.88;67.66;;
38366;Laerm;943;51.568;6.998;2024-03-06T07:23:25;50.35;44.47;64.11;;
38366;Laerm;943;51.568;6.998;2024-03-06T07:26:00;51.28;43.69;65.78;;
38366;Laerm;943;51.568;6.998;2024-03-06T07:28:28;48.95;42.94;73.65;;
38366;Laerm;943;51.568;6.998;2024-03-06T07:30:57;47.37;43.68;62.78;;
38366;Laerm;943;51.568;6.998;2024-03-06T07:33:25;46.94;42.46;62.69;;
38366;Laerm;943;51.568;6.998;2024-03-06T07:35:57;46.84;42.49;58.75;;
38366;Laerm;943;51.568;6.998;2024-03-06T07:38:25;47.00;43.37;54.01;;
38366;Laerm;943;51.568;6.998;2024-03-06T07:40:54;47.25;43.09;54.66;;
38366;Laerm;943;51.568;6.998;2024-03-06T07:43:24;46.29;42.81;53.43;;
38366;Laerm;943;51.568;6.998;2024-03-06T07:45:52;45.95;41.78;54.20;;
38366;Laerm;943;51.568;6.998;2024-03-06T07:48:21;46.49;42.53;54.32;;
38366;Laerm;943;51.568;6.998;2024-03-06T07:50:49;47.12;42.37;59.14;;
38366;Laerm;943;51.568;6.998;2024-03-06T07:53:18;45.40;41.63;54.86;;
38366;Laerm;943;51.568;6.998;2024-03-06T07:55:48;47.85;42.78;58.83;;
38366;Laerm;943;51.568;6.998;2024-03-06T07:58:21;51.29;41.69;70.24;;
38366;Laerm;943;51.568;6.998;2024-03-06T08:00:50;54.54;41.61;72.99;;
38366;Laerm;943;51.568;6.998;2024-03-06T08:03:23;45.08;40.74;51.49;;
38366;Laerm;943;51.568;6.998;2024-03-06T08:05:56;45.53;41.68;56.14;;
38366;Laerm;943;51.568;6.998;2024-03-06T08:08:24;44.36;39.90;52.53;;
38366;Laerm;943;51.568;6.998;2024-03-06T08:10:53;45.39;38.94;56.87;;
38366;Laerm;943;51.568;6.998;2024-03-06T08:13:22;45.33;38.59;57.92;;
38366;Laerm;943;51.568;6.998;2024-03-06T08:15:53;43.88;38.45;54.86;;
38366;Laerm;943;51.568;6.998;2024-03-06T08:18:21;43.75;38.81;54.56;;
38366;Laerm;943;51.568;6.998;2024-03-06T08:20:50;44.77;39.27;57.95;;
38366;Laerm;943;51.568;6.998;2024-03-06T08:23:18;43.85;38.74;57.49;;
38366;Laerm;943;51.568;6.998;2024-03-06T08:25:47;44.45;38.91;55.72;;
38366;Laerm;943;51.568;6.998;2024-03-06T08:28:16;43.63;38.75;55.72;;
38366;Laerm;943;51.568;6.998;2024-03-06T08:30:45;43.66;39.50;52.58;;
38366;Laerm;943;51.568;6.998;2024-03-06T08:33:14;44.66;39.44;54.86;;
38366;Laerm;943;51.568;6.998;2024-03-06T08:35:44;47.22;38.92;66.94;;
38366;Laerm;943;51.568;6.998;2024-03-06T08:38:12;46.08;39.09;56.62;;
38366;Laerm;943;51.568;6.998;2024-03-06T08:40:45;44.71;39.96;59.04;;
38366;Laerm;943;51.568;6.998;2024-03-06T08:43:17;45.23;40.30;57.35;;
38366;Laerm;943;51.568;6.998;2024-03-06T08:45:48;46.04;39.52;64.26;;
38366;Laerm;943;51.568;6.998;2024-03-06T08:48:16;46.32;39.99;68.25;;
38366;Laerm;943;51.568;6.998;2024-03-06T08:50:46;52.36;38.04;67.38;;
38366;Laerm;943;51.568;6.998;2024-03-06T08:53:17;51.11;40.54;68.63;;
38366;Laerm;943;51.568;6.998;2024-03-06T08:55:46;43.98;39.69;51.53;;
38366;Laerm;943;51.568;6.998;2024-03-06T08:58:15;43.40;39.44;51.72;;
38366;Laerm;943;51.568;6.998;2024-03-06T09:00:43;44.84;39.76;57.00;;
38366;Laerm;943;51.568;6.998;2024-03-06T09:03:12;47.10;39.88;62.84;;
38366;Laerm;943;51.568;6.998;2024-03-06T09:05:41;46.04;38.63;63.95;;
38366;Laerm;943;51.568;6.998;2024-03-06T09:08:12;43.73;39.67;53.21;;
38366;Laerm;943;51.568;6.998;2024-03-06T09:10:41;43.61;39.41;51.58;;
38366;Laerm;943;51.568;6.998;2024-03-06T09:13:10;48.52;39.02;65.11;;
38366;Laerm;943;51.568;6.998;2024-03-06T09:15:39;43.34;40.32;52.06;;
38366;Laerm;943;51.568;6.998;2024-03-06T09:18:08;43.78;38.92;55.65;;
38366;Laerm;943;51.568;6.998;2024-03-06T09:20:37;44.79;39.18;62.60;;
38366;Laerm;943;51.568;6.998;2024-03-06T09:23:06;44.17;39.23;57.47;;
38366;Laerm;943;51.568;6.998;2024-03-06T09:25:34;46.05;38.50;60.44;;
38366;Laerm;943;51.568;6.998;2024-03-06T09:28:08;49.76;42.09;61.51;;
38366;Laerm;943;51.568;6.998;2024-03-06T09:30:37;46.41;42.05;54.50;;
38366;Laerm;943;51.568;6.998;2024-03-06T09:33:05;48.25;40.57;60.31;;
38366;Laerm;943;51.568;6.998;2024-03-06T09:35:35;44.19;39.01;56.85;;
38366;Laerm;943;51.568;6.998;2024-03-06T09:38:04;49.35;38.95;63.44;;
38366;Laerm;943;51.568;6.998;2024-03-06T09:40:33;45.90;39.83;61.06;;
38366;Laerm;943;51.568;6.998;2024-03-06T09:43:03;46.41;39.26;57.51;;
38366;Laerm;943;51.568;6.998;2024-03-06T09:45:32;45.16;38.08;56.69;;
38366;Laerm;943;51.568;6.998;2024-03-06T09:48:02;45.85;40.43;55.75;;
38366;Laerm;943;51.568;6.998;2024-03-06T09:50:45;48.81;38.52;74.45;;
38366;Laerm;943;51.568;6.998;2024-03-06T09:53:16;43.19;38.45;54.96;;
38366;Laerm;943;51.568;6.998;2024-03-06T09:55:49;47.63;39.87;59.25;;
38366;Laerm;943;51.568;6.998;2024-03-06T09:58:19;48.08;40.05;69.59;;
38366;Laerm;943;51.568;6.998;2024-03-06T10:00:51;47.73;40.98;63.60;;
38366;Laerm;943;51.568;6.998;2024-03-06T10:03:21;44.07;38.80;58.12;;
38366;Laerm;943;51.568;6.998;2024-03-06T10:05:50;45.17;38.54;60.20;;
38366;Laerm;943;51.568;6.998;2024-03-06T10:08:22;46.76;38.69;65.42;;
38366;Laerm;943;51.568;6.998;2024-03-06T10:10:52;43.93;38.22;52.70;;
38366;Laerm;943;51.568;6.998;2024-03-06T10:13:26;42.88;38.39;54.12;;
38366;Laerm;943;51.568;6.998;2024-03-06T10:16:04;45.97;39.10;61.05;;
38366;Laerm;943;51.568;6.998;2024-03-06T10:18:40;45.54;39.36;56.52;;
38366;Laerm;943;51.568;6.998;2024-03-06T10:21:09;45.06;39.76;58.60;;
38366;Laerm;943;51.568;6.998;2024-03-06T10:23:39;44.33;39.35;55.28;;
38366;Laerm;943;51.568;6.998;2024-03-06T10:26:08;46.07;39.32;60.63;;
38366;Laerm;943;51.568;6.998;2024-03-06T10:28:44;45.48;38.22;67.35;;
38366;Laerm;943;51.568;6.998;2024-03-06T10:31:13;43.51;38.94;54.93;;
38366;Laerm;943;51.568;6.998;2024-03-06T10:33:43;44.21;38.95;62.92;;
38366;Laerm;943;51.568;6.998;2024-03-06T10:36:12;44.68;39.92;55.74;;
38366;Laerm;943;51.568;6.998;2024-03-06T10:38:47;47.20;38.79;67.25;;
38366;Laerm;943;51.568;6.998;2024-03-06T10:41:25;52.88;38.06;69.72;;
38366;Laerm;943;51.568;6.998;2024-03-06T10:43:55;48.94;39.38;65.87;;
38366;Laerm;943;51.568;6.998;2024-03-06T10:46:28;46.62;40.16;62.23;;
38366;Laerm;943;51.568;6.998;2024-03-06T10:49:03;46.59;39.21;62.24;;
38366;Laerm;943;51.568;6.998;2024-03-06T10:51:34;44.97;39.42;56.36;;
38366;Laerm;943;51.568;6.998;2024-03-06T10:54:05;44.73;39.23;56.26;;
38366;Laerm;943;51.568;6.998;2024-03-06T10:56:37;46.61;40.01;61.68;;
38366;Laerm;943;51.568;6.998;2024-03-06T10:59:12;44.51;39.24;57.89;;
38366;Laerm;943;51.568;6.998;2024-03-06T11:01:46;43.28;39.07;56.40;;
38366;Laerm;943;51.568;6.998;2024-03-06T11:04:17;50.23;40.94;67.26;;
38366;Laerm;943;51.568;6.998;2024-03-06T11:06:48;52.44;40.76;66.00;;
38366;Laerm;943;51.568;6.998;2024-03-06T11:09:18;43.87;40.05;56.23;;
38366;Laerm;943;51.568;6.998;2024-03-06T11:11:56;43.56;38.03;54.33;;
38366;Laerm;943;51.568;6.998;2024-03-06T11:14:26;44.05;39.10;60.48;;
38366;Laerm;943;51.568;6.998;2024-03-06T11:17:10;43.61;38.37;59.26;;
38366;Laerm;943;51.568;6.998;2024-03-06T11:23:02;44.07;40.25;54.90;;
38366;Laerm;943;51.568;6.998;2024-03-06T11:28:28;45.95;38.25;58.95;;
38366;Laerm;943;51.568;6.998;2024-03-06T11:31:20;44.47;39.48;58.25;;
38366;Laerm;943;51.568;6.998;2024-03-06T11:33:56;46.80;39.06;63.33;;
38366;Laerm;943;51.568;6.998;2024-03-06T11:36:30;43.73;39.91;57.40;;
38366;Laerm;943;51.568;6.998;2024-03-06T11:39:09;46.10;40.18;60.39;;
38366;Laerm;943;51.568;6.998;2024-03-06T11:44:26;43.74;38.66;57.24;;
38366;Laerm;943;51.568;6.998;2024-03-06T11:47:05;44.25;40.40;57.28;;
38366;Laerm;943;51.568;6.998;2024-03-06T11:49:38;44.29;39.77;55.06;;
38366;Laerm;943;51.568;6.998;2024-03-06T11:52:10;46.08;40.25;60.49;;
38366;Laerm;943;51.568;6.998;2024-03-06T11:54:39;43.55;39.69;54.78;;
38366;Laerm;943;51.568;6.998;2024-03-06T11:57:10;47.30;39.94;68.26;;
38366;Laerm;943;51.568;6.998;2024-03-06T11:59:41;45.95;39.38;63.94;;
38366;Laerm;943;51.568;6.998;2024-03-06T12:02:12;44.09;39.84;50.95;;
38366;Laerm;943;51.568;6.998;2024-03-06T12:04:41;45.48;39.76;59.68;;
38366;Laerm;943;51.568;6.998;2024-03-06T12:07:13;49.38;39.74;62.34;;
38366;Laerm;943;51.568;6.998;2024-03-06T12:09:42;45.96;38.59;61.27;;
38366;Laerm;943;51.568;6.998;2024-03-06T12:12:12;44.80;39.35;60.96;;
38366;Laerm;943;51.568;6.998;2024-03-06T12:14:42;45.32;40.45;57.06;;
38366;Laerm;943;51.568;6.998;2024-03-06T12:17:18;45.94;40.08;58.58;;
38366;Laerm;943;51.568;6.998;2024-03-06T12:19:48;50.21;40.74;62.27;;
38366;Laerm;943;51.568;6.998;2024-03-06T12:22:19;47.25;40.32;64.18;;
38366;Laerm;943;51.568;6.998;2024-03-06T12:25:01;47.29;39.65;71.67;;
38366;Laerm;943;51.568;6.998;2024-03-06T12:27:29;46.27;41.59;61.02;;
38366;Laerm;943;51.568;6.998;2024-03-06T12:29:59;51.04;40.95;76.54;;
38366;Laerm;943;51.568;6.998;2024-03-06T12:32:30;45.41;40.33;65.21;;
38366;Laerm;943;51.568;6.998;2024-03-06T12:35:00;44.29;41.05;53.37;;
38366;Laerm;943;51.568;6.998;2024-03-06T12:37:33;45.54;39.65;56.32;;
38366;Laerm;943;51.568;6.998;2024-03-06T12:40:13;47.28;39.55;61.72;;
38366;Laerm;943;51.568;6.998;2024-03-06T12:42:43;47.16;41.48;67.59;;
38366;Laerm;943;51.568;6.998;2024-03-06T12:45:16;48.18;41.01;77.40;;
38366;Laerm;943;51.568;6.998;2024-03-06T12:47:49;46.28;39.83;65.37;;
38366;Laerm;943;51.568;6.998;2024-03-06T12:50:20;47.86;40.93;64.27;;
38366;Laerm;943;51.568;6.998;2024-03-06T12:52:49;49.32;40.48;68.91;;
38366;Laerm;943;51.568;6.998;2024-03-06T12:55:18;47.28;40.79;61.43;;
38366;Laerm;943;51.568;6.998;2024-03-06T12:57:51;46.57;41.10;69.73;;
38366;Laerm;943;51.568;6.998;2024-03-06T13:00:21;44.47;40.37;56.83;;
38366;Laerm;943;51.568;6.998;2024-03-06T13:02:51;46.00;39.99;66.73;;
38366;Laerm;943;51.568;6.998;2024-03-06T13:05:20;43.98;39.52;57.85;;
38366;Laerm;943;51.568;6.998;2024-03-06T13:07:48;47.91;40.48;67.84;;
38366;Laerm;943;51.568;6.998;2024-03-06T13:10:17;45.09;41.32;58.16;;
38366;Laerm;943;51.568;6.998;2024-03-06T13:12:46;46.94;40.27;69.98;;
38366;Laerm;943;51.568;6.998;2024-03-06T13:15:19;46.86;39.90;63.10;;
38366;Laerm;943;51.568;6.998;2024-03-06T13:17:47;46.19;40.29;58.97;;
38366;Laerm;943;51.568;6.998;2024-03-06T13:20:17;47.55;41.66;61.46;;
38366;Laerm;943;51.568;6.998;2024-03-06T13:22:47;47.51;41.49;64.79;;
38366;Laerm;943;51.568;6.998;2024-03-06T13:25:15;46.59;41.90;61.28;;
38366;Laerm;943;51.568;6.998;2024-03-06T13:27:44;50.18;41.63;69.51;;
38366;Laerm;943;51.568;6.998;2024-03-06T13:30:13;51.30;40.89;73.87;;
38366;Laerm;943;51.568;6.998;2024-03-06T13:32:45;45.48;41.29;58.32;;
38366;Laerm;943;51.568;6.998;2024-03-06T13:35:14;47.02;43.27;57.53;;
38366;Laerm;943;51.568;6.998;2024-03-06T13:37:47;48.82;42.67;62.74;;
38366;Laerm;943;51.568;6.998;2024-03-06T13:40:16;55.28;43.98;72.16;;
38366;Laerm;943;51.568;6.998;2024-03-06T13:42:46;53.81;45.36;76.05;;
38366;Laerm;943;51.568;6.998;2024-03-06T13:45:16;49.02;42.91;60.38;;
38366;Laerm;943;51.568;6.998;2024-03-06T13:47:45;47.93;41.84;56.11;;
38366;Laerm;943;51.568;6.998;2024-03-06T13:50:17;47.67;41.73;64.69;;
38366;Laerm;943;51.568;6.998;2024-03-06T13:52:46;49.55;43.95;64.84;;
38366;Laerm;943;51.568;6.998;2024-03-06T13:55:15;48.71;44.35;64.58;;
38366;Laerm;943;51.568;6.998;2024-03-06T13:57:43;50.67;44.09;71.51;;
38366;Laerm;943;51.568;6.998;2024-03-06T14:00:19;47.60;42.42;59.49;;
38366;Laerm;943;51.568;6.998;2024-03-06T14:02:47;53.81;43.30;72.41;;
38366;Laerm;943;51.568;6.998;2024-03-06T14:05:18;47.89;42.76;61.05;;
38366;Laerm;943;51.568;6.998;2024-03-06T14:07:49;51.63;43.40;66.04;;
38366;Laerm;943;51.568;6.998;2024-03-06T14:10:24;55.02;42.82;68.17;;
38366;Laerm;943;51.568;6.998;2024-03-06T14:12:56;48.24;42.01;62.04;;
38366;Laerm;943;51.568;6.998;2024-03-06T14:15:27;51.50;41.65;66.95;;
38366;Laerm;943;51.568;6.998;2024-03-06T14:17:55;47.69;41.83;61.22;;
38366;Laerm;943;51.568;6.998;2024-03-06T14:20:24;48.36;42.48;63.45;;
38366;Laerm;943;51.568;6.998;2024-03-06T14:22:54;49.01;41.68;67.85;;
38366;Laerm;943;51.568;6.998;2024-03-06T14:25:23;47.87;44.36;60.81;;
38366;Laerm;943;51.568;6.998;2024-03-06T14:27:52;50.08;43.59;60.87;;
38366;Laerm;943;51.568;6.998;2024-03-06T14:30:22;48.86;44.28;69.86;;
38366;Laerm;943;51.568;6.998;2024-03-06T14:32:51;47.91;44.23;63.07;;
38366;Laerm;943;51.568;6.998;2024-03-06T14:35:20;47.99;43.89;63.11;;
38366;Laerm;943;51.568;6.998;2024-03-06T14:37:50;46.94;43.21;57.28;;
38366;Laerm;943;51.568;6.998;2024-03-06T14:40:18;46.93;42.35;57.33;;